sensor_id;sensor_type;location;lat;lon;timestamp;P1;durP1;ratioP1;P2;durP2;ratioP2
62268;SDS011;56517;51.634;5.566;2022-09-12T00:04:04;36.25;;;20.00;;
62268;SDS011;56517;51.634;5.566;2022-09-12T00:09:06;34.15;;;20.05;;
62268;SDS011;56517;51.634;5.566;2022-09-12T00:14:08;42.53;;;20.17;;
62268;SDS011;56517;51.634;5.566;2022-09-12T00:19:10;41.33;;;22.10;;
62268;SDS011;56517;51.634;5.566;2022-09-12T00:24:11;37.97;;;20.42;;
62268;SDS011;56517;51.634;5.566;2022-09-12T00:29:15;34.13;;;19.15;;
62268;SDS011;56517;51.634;5.566;2022-09-12T00:34:15;35.80;;;20.60;;
62268;SDS011;56517;51.634;5.566;2022-09-12T00:39:16;34.58;;;19.42;;
62268;SDS011;56517;51.634;5.566;2022-09-12T00:49:38;30.65;;;17.27;;
62268;SDS011;56517;51.634;5.566;2022-09-12T00:54:43;39.13;;;21.58;;
62268;SDS011;56517;51.634;5.566;2022-09-12T00:59:45;37.65;;;21.30;;
62268;SDS011;56517;51.634;5.566;2022-09-12T01:04:48;47.60;;;23.52;;
62268;SDS011;56517;51.634;5.566;2022-09-12T01:09:49;37.67;;;21.63;;
62268;SDS011;56517;51.634;5.566;2022-09-12T01:14:49;39.20;;;21.77;;
62268;SDS011;56517;51.634;5.566;2022-09-12T01:25:11;40.38;;;23.67;;
62268;SDS011;56517;51.634;5.566;2022-09-12T01:35:42;37.40;;;22.95;;
62268;SDS011;56517;51.634;5.566;2022-09-12T01:40:45;43.67;;;23.55;;
62268;SDS011;56517;51.634;5.566;2022-09-12T01:45:52;36.20;;;21.40;;
62268;SDS011;56517;51.634;5.566;2022-09-12T01:50:57;42.60;;;22.00;;
62268;SDS011;56517;51.634;5.566;2022-09-12T01:56:01;40.05;;;21.67;;
62268;SDS011;56517;51.634;5.566;2022-09-12T02:01:05;35.80;;;19.63;;
62268;SDS011;56517;51.634;5.566;2022-09-12T02:06:08;37.90;;;20.48;;
62268;SDS011;56517;51.634;5.566;2022-09-12T02:11:11;43.60;;;23.05;;
62268;SDS011;56517;51.634;5.566;2022-09-12T02:16:14;39.38;;;22.08;;
62268;SDS011;56517;51.634;5.566;2022-09-12T02:21:18;42.80;;;23.48;;
62268;SDS011;56517;51.634;5.566;2022-09-12T02:26:20;40.78;;;22.85;;
62268;SDS011;56517;51.634;5.566;2022-09-12T02:31:23;43.33;;;22.85;;
62268;SDS011;56517;51.634;5.566;2022-09-12T02:36:31;41.45;;;23.58;;
62268;SDS011;56517;51.634;5.566;2022-09-12T02:41:33;40.83;;;22.75;;
62268;SDS011;56517;51.634;5.566;2022-09-12T02:46:35;43.05;;;23.65;;
62268;SDS011;56517;51.634;5.566;2022-09-12T02:51:39;42.83;;;23.25;;
62268;SDS011;56517;51.634;5.566;2022-09-12T02:56:40;47.00;;;22.98;;
62268;SDS011;56517;51.634;5.566;2022-09-12T03:01:46;48.88;;;23.77;;
62268;SDS011;56517;51.634;5.566;2022-09-12T03:06:52;46.63;;;24.10;;
62268;SDS011;56517;51.634;5.566;2022-09-12T03:12:01;41.40;;;23.13;;
62268;SDS011;56517;51.634;5.566;2022-09-12T03:17:06;41.47;;;23.70;;
62268;SDS011;56517;51.634;5.566;2022-09-12T03:22:09;39.63;;;22.42;;
62268;SDS011;56517;51.634;5.566;2022-09-12T03:27:12;40.08;;;22.77;;
62268;SDS011;56517;51.634;5.566;2022-09-12T03:32:14;39.22;;;21.25;;
62268;SDS011;56517;51.634;5.566;2022-09-12T03:37:16;40.33;;;22.02;;
62268;SDS011;56517;51.634;5.566;2022-09-12T03:42:17;44.80;;;23.45;;
62268;SDS011;56517;51.634;5.566;2022-09-12T03:47:17;43.72;;;22.65;;
62268;SDS011;56517;51.634;5.566;2022-09-12T03:52:19;47.53;;;23.75;;
62268;SDS011;56517;51.634;5.566;2022-09-12T03:57:20;48.90;;;25.00;;
62268;SDS011;56517;51.634;5.566;2022-09-12T04:02:21;46.60;;;24.70;;
62268;SDS011;56517;51.634;5.566;2022-09-12T04:07:22;45.53;;;24.08;;
62268;SDS011;56517;51.634;5.566;2022-09-12T04:12:23;46.20;;;23.60;;
62268;SDS011;56517;51.634;5.566;2022-09-12T04:17:24;51.67;;;26.13;;
62268;SDS011;56517;51.634;5.566;2022-09-12T04:22:26;53.15;;;26.33;;
62268;SDS011;56517;51.634;5.566;2022-09-12T04:27:27;49.97;;;23.45;;
62268;SDS011;56517;51.634;5.566;2022-09-12T04:32:28;47.80;;;23.88;;
62268;SDS011;56517;51.634;5.566;2022-09-12T04:37:30;46.92;;;23.63;;
62268;SDS011;56517;51.634;5.566;2022-09-12T04:42:31;53.05;;;25.77;;
62268;SDS011;56517;51.634;5.566;2022-09-12T04:47:31;56.95;;;27.13;;
62268;SDS011;56517;51.634;5.566;2022-09-12T04:52:33;53.53;;;26.27;;
62268;SDS011;56517;51.634;5.566;2022-09-12T04:57:34;56.60;;;28.08;;
62268;SDS011;56517;51.634;5.566;2022-09-12T05:02:34;55.03;;;26.38;;
62268;SDS011;56517;51.634;5.566;2022-09-12T05:07:36;58.03;;;26.50;;
62268;SDS011;56517;51.634;5.566;2022-09-12T05:12:37;58.90;;;26.50;;
62268;SDS011;56517;51.634;5.566;2022-09-12T05:17:37;58.17;;;25.90;;
62268;SDS011;56517;51.634;5.566;2022-09-12T05:22:39;62.10;;;27.88;;
62268;SDS011;56517;51.634;5.566;2022-09-12T05:27:40;57.65;;;27.15;;
62268;SDS011;56517;51.634;5.566;2022-09-12T05:32:40;60.60;;;28.70;;
62268;SDS011;56517;51.634;5.566;2022-09-12T05:37:42;58.60;;;26.30;;
62268;SDS011;56517;51.634;5.566;2022-09-12T05:42:43;60.28;;;28.25;;
62268;SDS011;56517;51.634;5.566;2022-09-12T05:47:45;56.50;;;27.08;;
62268;SDS011;56517;51.634;5.566;2022-09-12T05:52:47;60.92;;;27.55;;
62268;SDS011;56517;51.634;5.566;2022-09-12T05:57:47;58.47;;;27.23;;
62268;SDS011;56517;51.634;5.566;2022-09-12T06:02:50;56.78;;;27.77;;
62268;SDS011;56517;51.634;5.566;2022-09-12T06:07:52;66.22;;;29.13;;
62268;SDS011;56517;51.634;5.566;2022-09-12T06:12:52;70.82;;;30.25;;
62268;SDS011;56517;51.634;5.566;2022-09-12T06:17:53;59.03;;;28.83;;
62268;SDS011;56517;51.634;5.566;2022-09-12T06:22:55;61.47;;;30.27;;
62268;SDS011;56517;51.634;5.566;2022-09-12T06:27:55;65.05;;;29.33;;
62268;SDS011;56517;51.634;5.566;2022-09-12T06:32:56;56.60;;;28.67;;
62268;SDS011;56517;51.634;5.566;2022-09-12T06:37:58;61.55;;;28.75;;
62268;SDS011;56517;51.634;5.566;2022-09-12T06:42:58;64.55;;;30.73;;
62268;SDS011;56517;51.634;5.566;2022-09-12T06:47:59;60.83;;;29.23;;
62268;SDS011;56517;51.634;5.566;2022-09-12T06:53:01;54.88;;;28.95;;
62268;SDS011;56517;51.634;5.566;2022-09-12T06:58:01;55.60;;;28.10;;
62268;SDS011;56517;51.634;5.566;2022-09-12T07:03:02;62.50;;;30.10;;
62268;SDS011;56517;51.634;5.566;2022-09-12T07:08:04;62.58;;;29.88;;
62268;SDS011;56517;51.634;5.566;2022-09-12T07:13:04;63.83;;;29.92;;
62268;SDS011;56517;51.634;5.566;2022-09-12T07:18:05;64.75;;;31.25;;
62268;SDS011;56517;51.634;5.566;2022-09-12T07:23:07;58.72;;;29.50;;
62268;SDS011;56517;51.634;5.566;2022-09-12T07:28:08;55.28;;;28.13;;
62268;SDS011;56517;51.634;5.566;2022-09-12T07:33:08;49.65;;;26.88;;
62268;SDS011;56517;51.634;5.566;2022-09-12T07:38:10;48.60;;;26.00;;
62268;SDS011;56517;51.634;5.566;2022-09-12T07:43:11;42.10;;;24.08;;
62268;SDS011;56517;51.634;5.566;2022-09-12T07:48:11;40.55;;;23.52;;
62268;SDS011;56517;51.634;5.566;2022-09-12T07:53:13;35.97;;;20.58;;
62268;SDS011;56517;51.634;5.566;2022-09-12T07:58:14;32.88;;;20.48;;
62268;SDS011;56517;51.634;5.566;2022-09-12T08:03:14;31.10;;;18.60;;
62268;SDS011;56517;51.634;5.566;2022-09-12T08:08:16;31.70;;;19.15;;
62268;SDS011;56517;51.634;5.566;2022-09-12T08:13:17;33.83;;;18.83;;
62268;SDS011;56517;51.634;5.566;2022-09-12T08:18:18;31.30;;;18.35;;
62268;SDS011;56517;51.634;5.566;2022-09-12T08:23:19;27.20;;;17.40;;
62268;SDS011;56517;51.634;5.566;2022-09-12T08:28:20;30.45;;;17.73;;
62268;SDS011;56517;51.634;5.566;2022-09-12T08:33:21;27.38;;;17.83;;
62268;SDS011;56517;51.634;5.566;2022-09-12T08:48:44;31.33;;;18.58;;
62268;SDS011;56517;51.634;5.566;2022-09-12T08:53:45;31.60;;;20.92;;
62268;SDS011;56517;51.634;5.566;2022-09-12T08:58:46;32.03;;;18.92;;
62268;SDS011;56517;51.634;5.566;2022-09-12T09:09:04;27.40;;;16.80;;
62268;SDS011;56517;51.634;5.566;2022-09-12T09:14:15;27.20;;;18.17;;
62268;SDS011;56517;51.634;5.566;2022-09-12T09:19:22;27.75;;;18.27;;
62268;SDS011;56517;51.634;5.566;2022-09-12T09:24:30;26.70;;;17.13;;
62268;SDS011;56517;51.634;5.566;2022-09-12T09:29:33;21.38;;;14.73;;
62268;SDS011;56517;51.634;5.566;2022-09-12T09:34:37;25.08;;;16.80;;
62268;SDS011;56517;51.634;5.566;2022-09-12T09:39:42;21.92;;;14.02;;
62268;SDS011;56517;51.634;5.566;2022-09-12T09:44:45;23.33;;;15.07;;
62268;SDS011;56517;51.634;5.566;2022-09-12T09:49:46;21.33;;;15.45;;
62268;SDS011;56517;51.634;5.566;2022-09-12T09:54:48;21.92;;;13.15;;
62268;SDS011;56517;51.634;5.566;2022-09-12T09:59:50;24.25;;;14.27;;
62268;SDS011;56517;51.634;5.566;2022-09-12T10:04:54;22.98;;;14.90;;
62268;SDS011;56517;51.634;5.566;2022-09-12T10:10:06;19.40;;;13.80;;
62268;SDS011;56517;51.634;5.566;2022-09-12T10:15:15;20.83;;;11.68;;
62268;SDS011;56517;51.634;5.566;2022-09-12T10:20:28;16.88;;;11.68;;
62268;SDS011;56517;51.634;5.566;2022-09-12T10:25:30;18.20;;;12.18;;
62268;SDS011;56517;51.634;5.566;2022-09-12T10:30:30;19.75;;;12.10;;
62268;SDS011;56517;51.634;5.566;2022-09-12T10:35:41;16.00;;;10.70;;
62268;SDS011;56517;51.634;5.566;2022-09-12T10:40:44;11.38;;;9.15;;
62268;SDS011;56517;51.634;5.566;2022-09-12T10:45:44;13.93;;;9.90;;
62268;SDS011;56517;51.634;5.566;2022-09-12T10:50:45;14.50;;;10.40;;
62268;SDS011;56517;51.634;5.566;2022-09-12T11:01:11;13.68;;;8.93;;
62268;SDS011;56517;51.634;5.566;2022-09-12T11:06:14;12.40;;;7.78;;
62268;SDS011;56517;51.634;5.566;2022-09-12T11:11:25;14.18;;;8.52;;
62268;SDS011;56517;51.634;5.566;2022-09-12T11:16:31;11.35;;;7.80;;
62268;SDS011;56517;51.634;5.566;2022-09-12T11:21:39;11.02;;;7.45;;
62268;SDS011;56517;51.634;5.566;2022-09-12T11:26:46;12.32;;;7.80;;
62268;SDS011;56517;51.634;5.566;2022-09-12T11:31:53;12.32;;;7.22;;
62268;SDS011;56517;51.634;5.566;2022-09-12T11:37:03;10.50;;;7.80;;
62268;SDS011;56517;51.634;5.566;2022-09-12T11:42:08;10.88;;;6.80;;
62268;SDS011;56517;51.634;5.566;2022-09-12T11:47:13;12.77;;;7.57;;
62268;SDS011;56517;51.634;5.566;2022-09-12T11:52:15;11.30;;;7.03;;
62268;SDS011;56517;51.634;5.566;2022-09-12T11:57:16;10.93;;;7.55;;
62268;SDS011;56517;51.634;5.566;2022-09-12T12:02:21;11.88;;;7.35;;
62268;SDS011;56517;51.634;5.566;2022-09-12T12:07:24;9.80;;;7.82;;
62268;SDS011;56517;51.634;5.566;2022-09-12T12:12:24;11.65;;;7.18;;
62268;SDS011;56517;51.634;5.566;2022-09-12T12:17:28;10.45;;;7.82;;
62268;SDS011;56517;51.634;5.566;2022-09-12T12:22:29;13.43;;;8.40;;
62268;SDS011;56517;51.634;5.566;2022-09-12T12:32:49;9.13;;;6.65;;
62268;SDS011;56517;51.634;5.566;2022-09-12T12:37:51;10.15;;;6.57;;
62268;SDS011;56517;51.634;5.566;2022-09-12T12:48:09;11.70;;;7.18;;
62268;SDS011;56517;51.634;5.566;2022-09-12T12:53:17;9.30;;;7.13;;
62268;SDS011;56517;51.634;5.566;2022-09-12T13:03:39;9.75;;;7.00;;
62268;SDS011;56517;51.634;5.566;2022-09-12T13:08:42;10.20;;;6.75;;
62268;SDS011;56517;51.634;5.566;2022-09-12T13:13:44;9.43;;;6.65;;
62268;SDS011;56517;51.634;5.566;2022-09-12T13:18:49;12.25;;;7.95;;
62268;SDS011;56517;51.634;5.566;2022-09-12T13:23:58;10.00;;;6.50;;
62268;SDS011;56517;51.634;5.566;2022-09-12T13:34:00;8.77;;;6.63;;
62268;SDS011;56517;51.634;5.566;2022-09-12T13:39:13;7.47;;;6.38;;
62268;SDS011;56517;51.634;5.566;2022-09-12T13:44:15;10.45;;;7.25;;
62268;SDS011;56517;51.634;5.566;2022-09-12T13:49:19;9.05;;;6.13;;
62268;SDS011;56517;51.634;5.566;2022-09-12T13:54:21;11.68;;;7.35;;
62268;SDS011;56517;51.634;5.566;2022-09-12T13:59:21;9.00;;;6.88;;
62268;SDS011;56517;51.634;5.566;2022-09-12T14:04:24;10.75;;;6.53;;
62268;SDS011;56517;51.634;5.566;2022-09-12T14:09:26;9.18;;;6.13;;
62268;SDS011;56517;51.634;5.566;2022-09-12T14:14:30;10.60;;;6.57;;
62268;SDS011;56517;51.634;5.566;2022-09-12T14:19:33;8.52;;;5.85;;
62268;SDS011;56517;51.634;5.566;2022-09-12T14:24:34;12.43;;;6.55;;
62268;SDS011;56517;51.634;5.566;2022-09-12T14:29:34;9.75;;;6.60;;
62268;SDS011;56517;51.634;5.566;2022-09-12T14:34:36;7.63;;;5.68;;
62268;SDS011;56517;51.634;5.566;2022-09-12T14:39:37;9.35;;;5.88;;
62268;SDS011;56517;51.634;5.566;2022-09-12T14:44:39;7.97;;;6.15;;
62268;SDS011;56517;51.634;5.566;2022-09-12T14:49:44;7.45;;;5.43;;
62268;SDS011;56517;51.634;5.566;2022-09-12T14:54:53;6.90;;;5.78;;
62268;SDS011;56517;51.634;5.566;2022-09-12T15:00:03;7.45;;;5.47;;
62268;SDS011;56517;51.634;5.566;2022-09-12T15:10:17;8.50;;;5.90;;
62268;SDS011;56517;51.634;5.566;2022-09-12T15:15:21;10.82;;;6.38;;
62268;SDS011;56517;51.634;5.566;2022-09-12T15:20:26;9.48;;;5.50;;
62268;SDS011;56517;51.634;5.566;2022-09-12T15:51:21;12.40;;;6.80;;
62268;SDS011;56517;51.634;5.566;2022-09-12T15:56:22;11.60;;;7.03;;
62268;SDS011;56517;51.634;5.566;2022-09-12T16:01:22;10.32;;;6.20;;
62268;SDS011;56517;51.634;5.566;2022-09-12T16:06:24;10.45;;;6.38;;
62268;SDS011;56517;51.634;5.566;2022-09-12T16:11:25;9.05;;;6.13;;
62268;SDS011;56517;51.634;5.566;2022-09-12T16:16:26;9.50;;;5.88;;
62268;SDS011;56517;51.634;5.566;2022-09-12T16:21:28;8.82;;;6.50;;
62268;SDS011;56517;51.634;5.566;2022-09-12T16:26:28;9.98;;;6.35;;
62268;SDS011;56517;51.634;5.566;2022-09-12T16:31:29;10.25;;;6.90;;
62268;SDS011;56517;51.634;5.566;2022-09-12T16:36:31;10.18;;;6.20;;
62268;SDS011;56517;51.634;5.566;2022-09-12T16:41:32;10.38;;;5.60;;
62268;SDS011;56517;51.634;5.566;2022-09-12T16:46:32;9.05;;;5.90;;
62268;SDS011;56517;51.634;5.566;2022-09-12T16:51:34;9.85;;;5.97;;
62268;SDS011;56517;51.634;5.566;2022-09-12T16:56:35;11.95;;;6.47;;
62268;SDS011;56517;51.634;5.566;2022-09-12T17:01:35;7.03;;;5.65;;
62268;SDS011;56517;51.634;5.566;2022-09-12T17:06:37;11.15;;;5.95;;
62268;SDS011;56517;51.634;5.566;2022-09-12T17:11:38;16.00;;;11.07;;
62268;SDS011;56517;51.634;5.566;2022-09-12T17:16:39;12.77;;;6.57;;
62268;SDS011;56517;51.634;5.566;2022-09-12T17:21:41;13.30;;;6.95;;
62268;SDS011;56517;51.634;5.566;2022-09-12T17:26:41;10.57;;;6.75;;
62268;SDS011;56517;51.634;5.566;2022-09-12T17:31:43;14.68;;;7.32;;
62268;SDS011;56517;51.634;5.566;2022-09-12T17:36:45;15.25;;;7.05;;
62268;SDS011;56517;51.634;5.566;2022-09-12T17:41:46;14.02;;;6.78;;
62268;SDS011;56517;51.634;5.566;2022-09-12T17:46:46;16.60;;;6.93;;
62268;SDS011;56517;51.634;5.566;2022-09-12T17:51:48;12.27;;;6.50;;
62268;SDS011;56517;51.634;5.566;2022-09-12T17:56:49;14.48;;;6.68;;
62268;SDS011;56517;51.634;5.566;2022-09-12T18:01:49;19.77;;;7.32;;
62268;SDS011;56517;51.634;5.566;2022-09-12T18:06:51;10.88;;;5.43;;
62268;SDS011;56517;51.634;5.566;2022-09-12T18:11:52;12.57;;;6.78;;
62268;SDS011;56517;51.634;5.566;2022-09-12T18:16:53;11.95;;;6.95;;
62268;SDS011;56517;51.634;5.566;2022-09-12T18:21:55;12.10;;;6.63;;
62268;SDS011;56517;51.634;5.566;2022-09-12T18:26:55;10.98;;;6.95;;
62268;SDS011;56517;51.634;5.566;2022-09-12T18:31:56;12.15;;;7.65;;
62268;SDS011;56517;51.634;5.566;2022-09-12T18:36:58;10.52;;;6.47;;
62268;SDS011;56517;51.634;5.566;2022-09-12T18:41:58;11.63;;;6.45;;
62268;SDS011;56517;51.634;5.566;2022-09-12T18:46:59;11.05;;;6.70;;
62268;SDS011;56517;51.634;5.566;2022-09-12T18:52:01;11.93;;;7.25;;
62268;SDS011;56517;51.634;5.566;2022-09-12T18:57:02;12.30;;;7.13;;
62268;SDS011;56517;51.634;5.566;2022-09-12T19:02:02;11.35;;;7.28;;
62268;SDS011;56517;51.634;5.566;2022-09-12T19:07:04;13.38;;;7.07;;
62268;SDS011;56517;51.634;5.566;2022-09-12T19:12:05;13.70;;;7.28;;
62268;SDS011;56517;51.634;5.566;2022-09-12T19:17:05;11.98;;;7.38;;
62268;SDS011;56517;51.634;5.566;2022-09-12T19:22:07;12.48;;;7.90;;
62268;SDS011;56517;51.634;5.566;2022-09-12T19:27:08;13.73;;;8.27;;
62268;SDS011;56517;51.634;5.566;2022-09-12T19:32:08;20.85;;;9.35;;
62268;SDS011;56517;51.634;5.566;2022-09-12T19:37:10;10.80;;;8.07;;
62268;SDS011;56517;51.634;5.566;2022-09-12T19:42:11;15.02;;;8.90;;
62268;SDS011;56517;51.634;5.566;2022-09-12T19:47:11;14.25;;;8.85;;
62268;SDS011;56517;51.634;5.566;2022-09-12T19:52:13;16.02;;;10.00;;
62268;SDS011;56517;51.634;5.566;2022-09-12T19:57:14;19.77;;;10.10;;
62268;SDS011;56517;51.634;5.566;2022-09-12T20:02:14;20.83;;;10.70;;
62268;SDS011;56517;51.634;5.566;2022-09-12T20:07:16;17.63;;;10.18;;
62268;SDS011;56517;51.634;5.566;2022-09-12T20:12:17;17.92;;;10.35;;
62268;SDS011;56517;51.634;5.566;2022-09-12T20:17:17;12.70;;;8.48;;
62268;SDS011;56517;51.634;5.566;2022-09-12T20:22:19;16.70;;;9.70;;
62268;SDS011;56517;51.634;5.566;2022-09-12T20:27:20;13.57;;;8.60;;
62268;SDS011;56517;51.634;5.566;2022-09-12T20:32:21;16.17;;;9.27;;
62268;SDS011;56517;51.634;5.566;2022-09-12T20:37:23;17.02;;;10.30;;
62268;SDS011;56517;51.634;5.566;2022-09-12T20:42:23;19.63;;;10.93;;
62268;SDS011;56517;51.634;5.566;2022-09-12T20:47:24;26.00;;;12.38;;
62268;SDS011;56517;51.634;5.566;2022-09-12T20:52:26;20.33;;;10.45;;
62268;SDS011;56517;51.634;5.566;2022-09-12T20:57:26;21.13;;;11.45;;
62268;SDS011;56517;51.634;5.566;2022-09-12T21:02:27;20.92;;;13.35;;
62268;SDS011;56517;51.634;5.566;2022-09-12T21:07:29;18.83;;;11.32;;
62268;SDS011;56517;51.634;5.566;2022-09-12T21:12:30;17.23;;;11.32;;
62268;SDS011;56517;51.634;5.566;2022-09-12T21:17:30;15.00;;;10.02;;
62268;SDS011;56517;51.634;5.566;2022-09-12T21:22:32;15.60;;;10.68;;
62268;SDS011;56517;51.634;5.566;2022-09-12T21:27:33;17.73;;;11.68;;
62268;SDS011;56517;51.634;5.566;2022-09-12T21:32:33;20.05;;;11.50;;
62268;SDS011;56517;51.634;5.566;2022-09-12T21:37:35;20.23;;;12.32;;
62268;SDS011;56517;51.634;5.566;2022-09-12T21:42:36;19.30;;;11.93;;
62268;SDS011;56517;51.634;5.566;2022-09-12T21:47:37;14.95;;;11.07;;
62268;SDS011;56517;51.634;5.566;2022-09-12T21:52:38;17.00;;;10.88;;
62268;SDS011;56517;51.634;5.566;2022-09-12T21:57:39;16.83;;;10.90;;
62268;SDS011;56517;51.634;5.566;2022-09-12T22:02:40;19.10;;;11.32;;
62268;SDS011;56517;51.634;5.566;2022-09-12T22:07:42;16.13;;;10.30;;
62268;SDS011;56517;51.634;5.566;2022-09-12T22:12:42;15.65;;;10.05;;
62268;SDS011;56517;51.634;5.566;2022-09-12T22:17:43;16.88;;;11.07;;
62268;SDS011;56517;51.634;5.566;2022-09-12T22:22:45;16.95;;;11.05;;
62268;SDS011;56517;51.634;5.566;2022-09-12T22:27:45;16.95;;;10.75;;
62268;SDS011;56517;51.634;5.566;2022-09-12T22:32:46;15.30;;;10.32;;
62268;SDS011;56517;51.634;5.566;2022-09-12T22:37:48;16.25;;;10.98;;
62268;SDS011;56517;51.634;5.566;2022-09-12T22:42:50;14.70;;;10.35;;
62268;SDS011;56517;51.634;5.566;2022-09-12T22:47:50;17.92;;;10.40;;
62268;SDS011;56517;51.634;5.566;2022-09-12T22:52:52;20.70;;;11.27;;
62268;SDS011;56517;51.634;5.566;2022-09-12T22:57:53;17.52;;;10.85;;
62268;SDS011;56517;51.634;5.566;2022-09-12T23:02:53;17.77;;;10.73;;
62268;SDS011;56517;51.634;5.566;2022-09-12T23:07:56;17.75;;;11.00;;
62268;SDS011;56517;51.634;5.566;2022-09-12T23:12:56;18.30;;;10.98;;
62268;SDS011;56517;51.634;5.566;2022-09-12T23:17:57;15.90;;;10.73;;
62268;SDS011;56517;51.634;5.566;2022-09-12T23:22:59;17.38;;;11.15;;
62268;SDS011;56517;51.634;5.566;2022-09-12T23:27:59;22.85;;;12.43;;
62268;SDS011;56517;51.634;5.566;2022-09-12T23:33:00;18.75;;;12.38;;
62268;SDS011;56517;51.634;5.566;2022-09-12T23:38:02;21.63;;;13.05;;
62268;SDS011;56517;51.634;5.566;2022-09-12T23:43:02;22.52;;;13.05;;
62268;SDS011;56517;51.634;5.566;2022-09-12T23:48:03;21.35;;;13.38;;
62268;SDS011;56517;51.634;5.566;2022-09-12T23:53:05;20.40;;;12.75;;
62268;SDS011;56517;51.634;5.566;2022-09-12T23:58:06;22.35;;;12.27;;
